Time;durP1;ratioP1;P1;durP2;ratioP2;P2;SDS_P1;SDS_P2;PMS_P1;PMS_P2;Temp;Humidity;BMP_temperature;BMP_pressure;BME280_temperature;BME280_humidity;BME280_pressure;Samples;Min_cycle;Max_cycle;Signal;HPM_P1;HPM_P2
2022/05/11 00:06:33;;;;;;;23.70;10.37;;;;;;;;;;5212276;22;20062;-67
2022/05/11 00:09:00;;;;;;;19.05;10.23;;;;;;;;;;5053587;28;20037;-64
2022/05/11 00:11:26;;;;;;;;;;;;;;;;;;5054222;28;20044;-64
2022/05/11 00:13:52;;;;;;;18.85;10.32;;;;;;;;;;5053714;28;19925;-64
2022/05/11 00:16:18;;;;;;;22.27;10.75;;;;;;;;;;5054013;28;20190;-63
2022/05/11 00:18:45;;;;;;;23.33;10.65;;;;;;;;;;5035578;28;20037;-64
2022/05/11 00:21:11;;;;;;;19.55;10.43;;;;;;;;;;5053814;28;20041;-64
2022/05/11 00:23:37;;;;;;;21.83;10.90;;;;;;;;;;5036368;28;20071;-65
2022/05/11 00:26:03;;;;;;;21.83;10.15;;;;;;;;;;5053735;28;20048;-64
2022/05/11 00:28:29;;;;;;;23.48;10.85;;;;;;;;;;5053581;28;20072;-65
2022/05/11 00:30:56;;;;;;;20.88;10.65;;;;;;;;;;5053471;28;20037;-64
2022/05/11 00:33:22;;;;;;;23.08;10.48;;;;;;;;;;5053251;28;20132;-64
2022/05/11 00:35:49;;;;;;;23.98;11.05;;;;;;;;;;5053430;28;20369;-64
2022/05/11 00:38:16;;;;;;;20.67;10.55;;;;;;;;;;5053429;28;20041;-63
2022/05/11 00:40:50;;;;;;;23.85;11.38;;;;;;;;;;5053310;28;20043;-64
2022/05/11 00:43:25;;;;;;;22.70;11.23;;;;;;;;;;5035287;28;20037;-64
2022/05/11 00:45:51;;;;;;;31.98;10.88;;;;;;;;;;5053280;28;20041;-64
2022/05/11 00:51:09;;;;;;;23.92;11.23;;;;;;;;;;5053256;28;20041;-64
2022/05/11 00:53:35;;;;;;;23.73;11.15;;;;;;;;;;5035193;28;20037;-65
2022/05/11 00:56:02;;;;;;;23.45;10.48;;;;;;;;;;5052951;28;20056;-65
2022/05/11 00:58:33;;;;;;;21.20;10.98;;;;;;;;;;5035082;28;20075;-65
2022/05/11 01:00:59;;;;;;;24.60;11.93;;;;;;;;;;5052815;28;20579;-65
2022/05/11 01:03:38;;;;;;;21.73;10.70;;;;;;;;;;5035547;28;20037;-65
2022/05/11 01:06:06;;;;;;;25.98;10.77;;;;;;;;;;5052674;28;20072;-65
2022/05/11 01:08:32;;;;;;;21.42;10.05;;;;;;;;;;5035359;28;20052;-65
2022/05/11 01:11:00;;;;;;;21.85;10.80;;;;;;;;;;5052778;28;20519;-65
2022/05/11 01:13:26;;;;;;;23.13;10.43;;;;;;;;;;5034901;28;20129;-65
2022/05/11 01:15:53;;;;;;;24.25;10.98;;;;;;;;;;5053140;28;20041;-65
2022/05/11 01:18:20;;;;;;;20.63;10.23;;;;;;;;;;5018666;28;20451;-65
2022/05/11 01:20:46;;;;;;;23.30;10.77;;;;;;;;;;5052963;28;20098;-64
2022/05/11 01:23:12;;;;;;;;;;;;;;;;;;5053373;28;20110;-65
2022/05/11 01:25:38;;;;;;;22.63;10.60;;;;;;;;;;5053059;28;19916;-65
2022/05/11 01:28:08;;;;;;;20.02;9.98;;;;;;;;;;5053647;28;20029;-64
2022/05/11 01:30:35;;;;;;;22.13;10.63;;;;;;;;;;5039568;28;20095;-65
2022/05/11 01:33:01;;;;;;;21.27;10.02;;;;;;;;;;5039037;28;20114;-65
2022/05/11 01:35:27;;;;;;;23.90;10.40;;;;;;;;;;5056866;28;20045;-65
2022/05/11 01:38:13;;;;;;;21.27;10.00;;;;;;;;;;5056867;28;20044;-64
2022/05/11 01:40:39;;;;;;;19.48;9.73;;;;;;;;;;5025835;28;20052;-65
2022/05/11 01:43:06;;;;;;;19.65;9.68;;;;;;;;;;5056673;28;20049;-65
2022/05/11 01:45:32;;;;;;;23.60;10.18;;;;;;;;;;5056705;28;20045;-65
2022/05/11 01:47:59;;;;;;;21.63;9.43;;;;;;;;;;5056315;28;20424;-65
2022/05/11 01:50:25;;;;;;;21.92;9.80;;;;;;;;;;5056657;28;20064;-65
2022/05/11 01:52:52;;;;;;;22.65;10.50;;;;;;;;;;5056617;28;20036;-65
2022/05/11 01:55:18;;;;;;;18.45;9.93;;;;;;;;;;5056471;28;20091;-65
2022/05/11 01:57:44;;;;;;;20.20;10.07;;;;;;;;;;5056189;28;20395;-65
2022/05/11 02:00:10;;;;;;;20.55;9.98;;;;;;;;;;5056041;28;20065;-66
2022/05/11 02:02:37;;;;;;;20.85;9.82;;;;;;;;;;5056209;28;20033;-64
2022/05/11 02:07:49;;;;;;;21.70;10.23;;;;;;;;;;5056371;28;20069;-65
2022/05/11 02:10:15;;;;;;;18.70;9.88;;;;;;;;;;5056098;28;20044;-65
2022/05/11 02:12:41;;;;;;;;;;;;;;;;;;5056632;28;20040;-65
2022/05/11 02:15:09;;;;;;;21.50;9.35;;;;;;;;;;5056057;28;19922;-65
2022/05/11 02:17:35;;;;;;;18.58;9.43;;;;;;;;;;5056011;28;20041;-64
2022/05/11 02:20:01;;;;;;;18.48;9.80;;;;;;;;;;5055976;28;20045;-65
2022/05/11 02:22:27;;;;;;;21.80;10.10;;;;;;;;;;5038194;28;20045;-64
2022/05/11 02:24:54;;;;;;;19.10;9.13;;;;;;;;;;5038168;28;20471;-65
2022/05/11 02:27:20;;;;;;;21.33;10.20;;;;;;;;;;5037996;28;20439;-65
2022/05/11 02:29:46;;;;;;;20.35;9.65;;;;;;;;;;5055915;28;20037;-65
2022/05/11 02:32:12;;;;;;;18.35;9.70;;;;;;;;;;5055496;28;20399;-64
2022/05/11 02:37:23;;;;;;;19.48;9.77;;;;;;;;;;5055698;28;20041;-64
2022/05/11 02:39:49;;;;;;;22.58;9.50;;;;;;;;;;5054626;28;20041;-65
2022/05/11 02:42:17;;;;;;;22.55;10.50;;;;;;;;;;5055292;28;20126;-65
2022/05/11 02:44:43;;;;;;;21.67;9.95;;;;;;;;;;5055745;28;20041;-65
2022/05/11 02:47:09;;;;;;;18.90;10.13;;;;;;;;;;5037802;28;20036;-65
2022/05/11 02:49:35;;;;;;;22.27;9.85;;;;;;;;;;5055623;28;20052;-66
2022/05/11 02:52:02;;;;;;;19.75;9.80;;;;;;;;;;5037725;28;20052;-65
2022/05/11 02:54:28;;;;;;;17.63;9.27;;;;;;;;;;5037393;28;20464;-65
2022/05/11 02:56:54;;;;;;;21.05;9.70;;;;;;;;;;5055514;28;20033;-65
2022/05/11 02:59:20;;;;;;;;;;;;;;;;;;5055742;28;20037;-66
2022/05/11 03:01:46;;;;;;;19.42;9.85;;;;;;;;;;5054245;28;19920;-65
2022/05/11 03:04:12;;;;;;;17.10;9.15;;;;;;;;;;5055251;28;20048;-65
2022/05/11 03:06:38;;;;;;;21.55;8.80;;;;;;;;;;5055327;28;20052;-66
2022/05/11 03:09:04;;;;;;;20.75;9.43;;;;;;;;;;5054960;28;20480;-66
2022/05/11 03:11:31;;;;;;;26.77;9.25;;;;;;;;;;5054875;28;20555;-65
2022/05/11 03:13:57;;;;;;;16.80;9.07;;;;;;;;;;5055166;28;20045;-66
2022/05/11 03:16:23;;;;;;;21.67;8.85;;;;;;;;;;5037311;28;20179;-66
2022/05/11 03:18:49;;;;;;;20.50;8.85;;;;;;;;;;5055115;28;20045;-66
2022/05/11 03:21:15;;;;;;;17.52;9.38;;;;;;;;;;5037090;28;20073;-66
2022/05/11 03:23:42;;;;;;;;;;;;;;;;;;5055323;28;20059;-66
2022/05/11 03:26:11;;;;;;;16.83;8.55;;;;;;;;;;5054850;28;19917;-65
2022/05/11 03:28:38;;;;;;;20.40;9.18;;;;;;;;;;5036710;28;20048;-65
2022/05/11 03:31:04;;;;;;;20.45;8.75;;;;;;;;;;5054763;28;20120;-65
2022/05/11 03:36:15;;;;;;;19.10;8.85;;;;;;;;;;5054697;28;20079;-65
2022/05/11 03:38:41;;;;;;;20.48;8.63;;;;;;;;;;5054732;28;20044;-65
2022/05/11 03:41:07;;;;;;;19.08;8.23;;;;;;;;;;5036803;28;20040;-67
2022/05/11 03:43:33;;;;;;;14.32;7.53;;;;;;;;;;5020211;28;20447;-66
2022/05/11 03:45:59;;;;;;;17.60;7.97;;;;;;;;;;5036138;28;20046;-65
2022/05/11 03:48:26;;;;;;;16.23;7.57;;;;;;;;;;5053744;28;20040;-65
2022/05/11 03:50:52;;;;;;;16.67;7.88;;;;;;;;;;5054182;28;20059;-65
2022/05/11 03:53:18;;;;;;;14.70;6.97;;;;;;;;;;5038922;28;20044;-65
2022/05/11 03:55:44;;;;;;;16.92;7.85;;;;;;;;;;5056271;28;20041;-65
2022/05/11 03:58:13;;;;;;;18.33;8.15;;;;;;;;;;5054200;28;20094;-65
2022/05/11 04:00:39;;;;;;;16.98;7.28;;;;;;;;;;5053622;28;20171;-65
2022/05/11 04:03:05;;;;;;;19.00;6.95;;;;;;;;;;5053490;28;20037;-65
2022/05/11 04:05:32;;;;;;;18.23;8.15;;;;;;;;;;5053448;28;20090;-65
2022/05/11 04:07:58;;;;;;;16.17;7.93;;;;;;;;;;5053689;28;20353;-65
2022/05/11 04:10:24;;;;;;;;;;;;;;;;;;5054219;28;20041;-66
2022/05/11 04:12:50;;;;;;;18.02;7.82;;;;;;;;;;5053867;28;19917;-66
2022/05/11 04:15:16;;;;;;;21.77;7.82;;;;;;;;;;5053842;28;20079;-66
2022/05/11 04:17:42;;;;;;;;;;;;;;;;;;5036067;28;20049;-65
2022/05/11 04:20:10;;;;;;;15.80;7.28;;;;;;;;;;5053278;28;19974;-66
2022/05/11 04:22:36;;;;;;;16.02;7.47;;;;;;;;;;5053657;28;20061;-66
2022/05/11 04:25:02;;;;;;;17.05;7.10;;;;;;;;;;5019011;28;20040;-65
2022/05/11 04:27:29;;;;;;;;;;;;;;;;;;5036268;28;20032;-66
2022/05/11 04:29:55;;;;;;;16.48;7.85;;;;;;;;;;5053955;28;19966;-65
2022/05/11 04:32:21;;;;;;;19.02;8.20;;;;;;;;;;5053409;28;20045;-66
2022/05/11 04:34:47;;;;;;;18.20;8.20;;;;;;;;;;5018912;28;20044;-65
2022/05/11 04:37:14;;;;;;;19.13;8.57;;;;;;;;;;5053420;28;20044;-66
2022/05/11 04:39:40;;;;;;;17.73;8.60;;;;;;;;;;5053108;28;20124;-65
2022/05/11 04:42:07;;;;;;;18.50;8.70;;;;;;;;;;5053234;28;20118;-64
2022/05/11 04:44:33;;;;;;;16.45;7.97;;;;;;;;;;5035435;28;20044;-65
2022/05/11 04:46:59;;;;;;;;;;;;;;;;;;5053496;28;20037;-64
2022/05/11 04:49:25;;;;;;;23.15;8.82;;;;;;;;;;5035068;28;19917;-65
2022/05/11 04:52:08;;;;;;;19.85;8.60;;;;;;;;;;5053217;28;20454;-65
2022/05/11 04:54:52;;;;;;;17.73;8.27;;;;;;;;;;5035414;28;20041;-65
2022/05/11 04:57:19;;;;;;;21.23;7.95;;;;;;;;;;5052948;28;20392;-64
2022/05/11 04:59:45;;;;;;;17.63;7.40;;;;;;;;;;5053074;28;20092;-65
2022/05/11 05:02:16;;;;;;;19.38;8.13;;;;;;;;;;5035183;28;20063;-64
2022/05/11 05:04:42;;;;;;;19.92;8.15;;;;;;;;;;5052723;28;20455;-65
2022/05/11 05:07:08;;;;;;;16.80;8.02;;;;;;;;;;5052440;28;20108;-66
2022/05/11 05:09:34;;;;;;;16.50;7.03;;;;;;;;;;5052135;28;20076;-64
2022/05/11 05:12:01;;;;;;;16.52;7.60;;;;;;;;;;5052324;28;20048;-64
2022/05/11 05:14:27;;;;;;;18.83;7.68;;;;;;;;;;5052152;28;20084;-66
2022/05/11 05:16:53;;;;;;;17.20;7.47;;;;;;;;;;5053090;28;20048;-65
2022/05/11 05:19:19;;;;;;;15.82;7.22;;;;;;;;;;5053016;28;20076;-66
2022/05/11 05:21:45;;;;;;;;;;;;;;;;;;5035264;28;20074;-66
2022/05/11 05:24:11;;;;;;;18.70;8.25;;;;;;;;;;5051710;28;19920;-65
2022/05/11 05:26:37;;;;;;;20.45;7.40;;;;;;;;;;5035252;28;20132;-65
2022/05/11 05:31:48;;;;;;;17.13;7.40;;;;;;;;;;5034708;28;20049;-65
2022/05/11 05:34:15;;;;;;;19.70;7.60;;;;;;;;;;5052770;28;20045;-65
2022/05/11 05:36:41;;;;;;;19.77;7.53;;;;;;;;;;5035137;28;20072;-65
2022/05/11 05:39:07;;;;;;;16.90;7.47;;;;;;;;;;5052782;28;20049;-65
2022/05/11 05:41:33;;;;;;;26.73;11.18;;;;;;;;;;5052726;28;20044;-66
2022/05/11 05:44:00;;;;;;;;;;;;;;;;;;5052784;28;20037;-66
2022/05/11 05:46:26;;;;;;;19.02;7.57;;;;;;;;;;5053008;28;19966;-66
2022/05/11 05:48:53;;;;;;;18.83;7.22;;;;;;;;;;5035299;28;20045;-65
2022/05/11 05:51:20;;;;;;;25.40;11.02;;;;;;;;;;5052490;28;20037;-66
2022/05/11 05:53:46;;;;;;;21.98;9.15;;;;;;;;;;5052586;28;20056;-66
2022/05/11 05:56:13;;;;;;;20.90;9.68;;;;;;;;;;5052654;28;20051;-65
2022/05/11 05:58:40;;;;;;;21.10;7.13;;;;;;;;;;5034647;28;20540;-65
2022/05/11 06:01:06;;;;;;;20.27;7.40;;;;;;;;;;5052366;28;20123;-65
2022/05/11 06:03:33;;;;;;;21.42;6.63;;;;;;;;;;5052319;28;20071;-66
2022/05/11 06:06:00;;;;;;;17.15;6.60;;;;;;;;;;5052399;28;20075;-66
2022/05/11 06:08:27;;;;;;;22.13;7.88;;;;;;;;;;5052602;28;20048;-64
2022/05/11 06:10:54;;;;;;;15.45;6.50;;;;;;;;;;5034427;28;20087;-65
2022/05/11 06:13:22;;;;;;;18.58;7.78;;;;;;;;;;5052577;28;20392;-66
2022/05/11 06:15:48;;;;;;;29.27;11.35;;;;;;;;;;5053842;28;20460;-65
2022/05/11 06:18:14;;;;;;;;;;;;;;;;;;5056505;28;20115;-65
2022/05/11 06:20:40;;;;;;;24.20;8.43;;;;;;;;;;5055829;28;20062;-64
2022/05/11 06:23:07;;;;;;;21.08;7.60;;;;;;;;;;5021792;28;20116;-64
2022/05/11 06:25:33;;;;;;;;;;;;;;;;;;5038496;28;20369;-64
2022/05/11 06:27:59;;;;;;;20.05;7.75;;;;;;;;;;5055810;28;19927;-64
2022/05/11 06:30:27;;;;;;;24.60;7.90;;;;;;;;;;5055928;28;20124;-64
2022/05/11 06:32:53;;;;;;;24.52;7.18;;;;;;;;;;5055465;28;20044;-64
2022/05/11 06:35:19;;;;;;;18.52;7.35;;;;;;;;;;5055757;28;20472;-64
2022/05/11 06:37:45;;;;;;;23.58;7.90;;;;;;;;;;5038313;28;20040;-65
2022/05/11 06:40:12;;;;;;;21.83;8.27;;;;;;;;;;5037535;28;20052;-63
2022/05/11 06:42:38;;;;;;;28.05;8.32;;;;;;;;;;5055669;28;20032;-63
2022/05/11 06:45:05;;;;;;;25.08;8.80;;;;;;;;;;5055583;28;20040;-64
2022/05/11 06:47:32;;;;;;;31.67;8.38;;;;;;;;;;5055375;28;20051;-65
2022/05/11 06:49:58;;;;;;;22.40;7.97;;;;;;;;;;5055338;28;20052;-65
2022/05/11 06:52:24;;;;;;;;;;;;;;;;;;5055920;28;20388;-64
2022/05/11 07:00:20;;;;;;;28.83;9.00;;;;;;;;;;5037051;28;20077;-64
2022/05/11 07:02:46;;;;;;;21.58;7.70;;;;;;;;;;5055236;28;20043;-66
2022/05/11 07:05:12;;;;;;;21.10;7.10;;;;;;;;;;5054953;28;20048;-65
2022/05/11 07:07:39;;;;;;;31.67;8.43;;;;;;;;;;5037152;28;20495;-64
2022/05/11 07:10:06;;;;;;;27.25;8.23;;;;;;;;;;5055034;28;20032;-64
2022/05/11 07:12:46;;;;;;;21.55;7.90;;;;;;;;;;5055058;28;20076;-65
2022/05/11 07:15:12;;;;;;;26.80;8.63;;;;;;;;;;5037136;28;20049;-65
2022/05/11 07:17:40;;;;;;;24.80;8.80;;;;;;;;;;5054942;28;20043;-69
2022/05/11 07:20:15;;;;;;;29.02;8.88;;;;;;;;;;5054566;28;20049;-66
2022/05/11 07:22:43;;;;;;;23.05;8.43;;;;;;;;;;5054851;28;20126;-66
2022/05/11 07:25:10;;;;;;;23.42;8.80;;;;;;;;;;5054800;28;20044;-65
2022/05/11 07:27:37;;;;;;;25.33;9.13;;;;;;;;;;5054091;28;20115;-65
2022/05/11 07:30:04;;;;;;;24.42;8.43;;;;;;;;;;5055110;28;20519;-68
2022/05/11 07:32:30;;;;;;;26.25;9.30;;;;;;;;;;5037938;28;20052;-67
2022/05/11 07:34:56;;;;;;;23.35;8.32;;;;;;;;;;5054872;28;20151;-65
2022/05/11 07:37:22;;;;;;;23.33;7.50;;;;;;;;;;5054515;28;20047;-65
2022/05/11 07:39:49;;;;;;;;;;;;;;;;;;5054370;28;20037;-67
2022/05/11 07:42:16;;;;;;;26.20;8.45;;;;;;;;;;5054259;28;19923;-65
2022/05/11 07:44:42;;;;;;;22.73;7.70;;;;;;;;;;5054063;28;20048;-65
2022/05/11 07:47:10;;;;;;;;;;;;;;;;;;5036393;28;20041;-68
2022/05/11 07:49:37;;;;;;;24.02;7.45;;;;;;;;;;5054189;28;19924;-69
2022/05/11 07:52:03;;;;;;;18.92;6.57;;;;;;;;;;5054027;28;20495;-65
2022/05/11 07:54:30;;;;;;;20.38;6.00;;;;;;;;;;5054111;28;20128;-65
2022/05/11 07:59:59;;;;;;;23.58;6.20;;;;;;;;;;5053541;28;20045;-70
2022/05/11 08:02:29;;;;;;;28.45;5.95;;;;;;;;;;5038174;28;20396;-65
2022/05/11 08:04:59;;;;;;;21.38;5.63;;;;;;;;;;5053637;28;20095;-70
2022/05/11 08:07:27;;;;;;;20.73;5.20;;;;;;;;;;5053488;28;20389;-63
2022/05/11 08:10:00;;;;;;;19.58;5.07;;;;;;;;;;5053363;28;20045;-64
2022/05/11 08:12:26;;;;;;;23.25;5.82;;;;;;;;;;5035174;28;20115;-65
2022/05/11 08:14:53;;;;;;;21.27;6.00;;;;;;;;;;5052728;28;20088;-65
2022/05/11 08:17:24;;;;;;;22.50;5.57;;;;;;;;;;5053311;28;20048;-67
2022/05/11 08:19:50;;;;;;;21.52;5.22;;;;;;;;;;5052126;28;20057;-66
2022/05/11 08:22:16;;;;;;;22.88;5.65;;;;;;;;;;5034575;28;20079;-71
2022/05/11 08:24:42;;;;;;;30.00;6.45;;;;;;;;;;5052974;28;20127;-70
2022/05/11 08:27:09;;;;;;;;;;;;;;;;;;5053300;28;20037;-64
2022/05/11 08:35:05;;;;;;;23.55;6.03;;;;;;;;;;5052593;28;20356;-67
2022/05/11 08:37:33;;;;;;;32.10;10.23;;;;;;;;;;5051871;28;20098;-66
2022/05/11 08:39:59;;;;;;;24.67;6.25;;;;;;;;;;5018015;28;20404;-67
2022/05/11 08:42:25;;;;;;;17.90;5.47;;;;;;;;;;5052031;28;20399;-67
2022/05/11 08:44:51;;;;;;;25.27;5.47;;;;;;;;;;5034707;28;20045;-66
2022/05/11 08:47:44;;;;;;;18.95;5.70;;;;;;;;;;5034897;28;20384;-66
2022/05/11 08:50:13;;;;;;;19.00;5.25;;;;;;;;;;5048995;28;20622;-65
2022/05/11 08:52:59;;;;;;;18.95;5.43;;;;;;;;;;5052700;28;20114;-65
2022/05/11 08:55:43;;;;;;;28.15;6.03;;;;;;;;;;5034873;28;20037;-67
2022/05/11 08:58:11;;;;;;;20.55;5.82;;;;;;;;;;5051650;28;20124;-66
2022/05/11 09:00:41;;;;;;;24.45;5.93;;;;;;;;;;5052123;28;20052;-68
2022/05/11 09:03:18;;;;;;;24.73;6.35;;;;;;;;;;5052030;28;20502;-64
2022/05/11 09:05:44;;;;;;;17.85;5.43;;;;;;;;;;5051604;28;20065;-66
2022/05/11 09:08:11;;;;;;;24.25;5.60;;;;;;;;;;5051753;28;20055;-64
2022/05/11 09:10:38;;;;;;;17.85;4.60;;;;;;;;;;5052204;28;20059;-70
2022/05/11 09:13:10;;;;;;;18.92;4.75;;;;;;;;;;5052148;28;20037;-64
2022/05/11 09:15:53;;;;;;;17.95;5.70;;;;;;;;;;5034734;28;20460;-66
2022/05/11 09:18:19;;;;;;;19.35;4.65;;;;;;;;;;5034242;28;20555;-63
2022/05/11 09:20:47;;;;;;;19.48;4.72;;;;;;;;;;5034684;28;20041;-63
2022/05/11 09:23:13;;;;;;;18.35;5.03;;;;;;;;;;5051825;28;20029;-64
2022/05/11 09:25:53;;;;;;;25.15;5.53;;;;;;;;;;5052150;28;20029;-69
2022/05/11 09:28:21;;;;;;;18.38;4.60;;;;;;;;;;5051640;28;20033;-64
2022/05/11 09:30:58;;;;;;;23.40;5.63;;;;;;;;;;5034031;28;20124;-66
2022/05/11 09:33:27;;;;;;;18.55;4.82;;;;;;;;;;5051444;28;20045;-69
2022/05/11 09:35:53;;;;;;;23.45;5.32;;;;;;;;;;5033821;28;20041;-64
2022/05/11 09:38:19;;;;;;;25.08;5.95;;;;;;;;;;5051400;28;20484;-68
2022/05/11 09:40:45;;;;;;;;;;;;;;;;;;5051692;28;20128;-65
2022/05/11 09:43:25;;;;;;;18.70;4.78;;;;;;;;;;5051412;28;19967;-64
2022/05/11 09:45:51;;;;;;;20.05;5.43;;;;;;;;;;5051196;28;20068;-65
2022/05/11 09:48:20;;;;;;;18.85;5.13;;;;;;;;;;5051011;28;20056;-64
2022/05/11 09:50:47;;;;;;;15.73;4.93;;;;;;;;;;5036344;28;20045;-64
2022/05/11 09:53:24;;;;;;;19.42;4.65;;;;;;;;;;5021069;28;20094;-67
2022/05/11 09:55:51;;;;;;;22.88;6.03;;;;;;;;;;5055005;28;20095;-63
2022/05/11 09:58:17;;;;;;;;;;;;;;;;;;5055443;28;20106;-69
2022/05/11 10:00:43;;;;;;;24.08;5.07;;;;;;;;;;5053364;28;20359;-65
2022/05/11 10:03:14;;;;;;;21.55;5.72;;;;;;;;;;5055021;28;20118;-64
2022/05/11 10:05:47;;;;;;;22.05;4.93;;;;;;;;;;5020457;28;20056;-67
2022/05/11 10:08:31;;;;;;;22.02;5.13;;;;;;;;;;5054699;28;20041;-65
2022/05/11 10:11:13;;;;;;;20.92;4.40;;;;;;;;;;5054788;28;20033;-67
2022/05/11 10:13:55;;;;;;;18.38;4.95;;;;;;;;;;5036868;28;20033;-64
2022/05/11 10:22:26;;;;;;;24.50;4.72;;;;;;;;;;5054771;28;20151;-64
2022/05/11 10:24:56;;;;;;;20.30;4.68;;;;;;;;;;5054461;28;20076;-63
2022/05/11 10:27:35;;;;;;;19.00;4.60;;;;;;;;;;5054412;28;20045;-64
2022/05/11 10:30:08;;;;;;;20.65;4.97;;;;;;;;;;5053977;28;20071;-70
2022/05/11 10:32:57;;;;;;;22.40;5.13;;;;;;;;;;5036388;28;20071;-64
2022/05/11 10:35:39;;;;;;;18.13;5.10;;;;;;;;;;5054584;28;20117;-64
2022/05/11 10:38:21;;;;;;;17.77;4.43;;;;;;;;;;5054055;28;20433;-64
2022/05/11 10:40:48;;;;;;;16.02;4.57;;;;;;;;;;5036145;28;20048;-64
2022/05/11 10:43:29;;;;;;;19.10;4.93;;;;;;;;;;5054095;28;20107;-65
2022/05/11 10:45:59;;;;;;;16.77;4.22;;;;;;;;;;5054369;28;20044;-65
2022/05/11 10:48:45;;;;;;;17.45;4.72;;;;;;;;;;5054121;28;20064;-64
2022/05/11 10:51:14;;;;;;;16.92;4.43;;;;;;;;;;5054244;28;20055;-67
2022/05/11 10:53:48;;;;;;;16.52;3.65;;;;;;;;;;5036432;28;20037;-66
2022/05/11 10:56:26;;;;;;;17.10;4.07;;;;;;;;;;5054810;28;20037;-76
2022/05/11 10:59:04;;;;;;;18.30;4.30;;;;;;;;;;5036625;28;20049;-73
2022/05/11 11:01:35;;;;;;;15.18;4.40;;;;;;;;;;5035320;28;20087;-73
2022/05/11 11:04:21;;;;;;;16.15;4.57;;;;;;;;;;5055384;28;20044;-64
2022/05/11 11:07:11;;;;;;;15.38;4.43;;;;;;;;;;5038043;28;20056;-63
2022/05/11 11:09:55;;;;;;;18.20;4.60;;;;;;;;;;5055495;28;20102;-64
2022/05/11 11:12:27;;;;;;;30.88;12.05;;;;;;;;;;5053984;28;20041;-64
2022/05/11 11:14:56;;;;;;;19.30;4.75;;;;;;;;;;5054021;28;20040;-66
2022/05/11 11:17:23;;;;;;;21.23;4.40;;;;;;;;;;5053814;28;20041;-63
2022/05/11 11:19:50;;;;;;;19.45;4.80;;;;;;;;;;5035824;28;20111;-65
2022/05/11 11:22:16;;;;;;;18.00;4.38;;;;;;;;;;5053624;28;20099;-65
2022/05/11 11:24:43;;;;;;;22.13;5.60;;;;;;;;;;5035429;28;20048;-64
2022/05/11 11:27:10;;;;;;;24.58;4.90;;;;;;;;;;5035448;28;20045;-62
2022/05/11 11:29:38;;;;;;;20.73;4.55;;;;;;;;;;5053506;28;20043;-67
2022/05/11 11:32:11;;;;;;;19.27;5.35;;;;;;;;;;5053654;28;20064;-64
2022/05/11 11:34:39;;;;;;;19.50;4.40;;;;;;;;;;5035521;28;20435;-64
2022/05/11 11:37:23;;;;;;;22.60;5.57;;;;;;;;;;5053011;28;20037;-64
2022/05/11 11:39:54;;;;;;;19.67;4.30;;;;;;;;;;5053593;28;20041;-66
2022/05/11 11:42:37;;;;;;;23.13;4.88;;;;;;;;;;5052901;28;20037;-65
2022/05/11 11:45:05;;;;;;;23.23;5.00;;;;;;;;;;5053206;28;20037;-65
2022/05/11 11:47:36;;;;;;;20.17;4.68;;;;;;;;;;5052873;28;20576;-64
2022/05/11 11:50:03;;;;;;;23.90;4.85;;;;;;;;;;5035437;28;20052;-68
2022/05/11 11:52:39;;;;;;;15.98;4.97;;;;;;;;;;5052709;28;20192;-64
2022/05/11 11:55:26;;;;;;;26.20;5.43;;;;;;;;;;5034909;28;20048;-64
2022/05/11 11:57:52;;;;;;;;;;;;;;;;;;5036236;28;20084;-64
2022/05/11 12:00:21;;;;;;;14.77;3.72;;;;;;;;;;5052938;28;20399;-64
2022/05/11 12:02:47;;;;;;;15.35;4.68;;;;;;;;;;5035541;28;20037;-64
2022/05/11 12:05:13;;;;;;;;;;;;;;;;;;5053363;28;20044;-66
2022/05/11 12:16:26;;;;;;;14.27;3.13;;;;;;;;;;5053718;28;20048;-69
2022/05/11 12:18:53;;;;;;;13.70;3.10;;;;;;;;;;5053891;28;20040;-69
2022/05/11 12:21:30;;;;;;;15.23;3.15;;;;;;;;;;5053374;28;20048;-62
2022/05/11 12:23:57;;;;;;;10.93;2.55;;;;;;;;;;5052887;28;20033;-64
2022/05/11 12:26:25;;;;;;;14.05;2.70;;;;;;;;;;5034433;28;20041;-62
2022/05/11 12:29:54;;;;;;;12.40;2.15;;;;;;;;;;5052716;28;20029;-62
2022/05/11 12:31:39;;;;;;;10.98;2.33;;;;;;;;;;5052818;28;20124;-67
2022/05/11 12:34:06;;;;;;;9.15;2.20;;;;;;;;;;5051897;28;20041;-65
2022/05/11 12:36:37;;;;;;;15.63;2.38;;;;;;;;;;5034526;28;20115;-62
2022/05/11 12:39:04;;;;;;;14.60;2.95;;;;;;;;;;5053043;28;20068;-65
2022/05/11 12:41:31;;;;;;;15.98;4.20;;;;;;;;;;5051608;28;20041;-63
2022/05/11 12:43:59;;;;;;;14.27;3.42;;;;;;;;;;5051996;28;20045;-64
2022/05/11 12:46:27;;;;;;;18.42;2.80;;;;;;;;;;5052287;28;20115;-65
2022/05/11 12:48:54;;;;;;;12.85;3.03;;;;;;;;;;5052674;28;20076;-61
2022/05/11 12:51:42;;;;;;;13.30;2.47;;;;;;;;;;5053523;28;20047;-63
2022/05/11 12:54:08;;;;;;;;;;;;;;;;;;5053334;28;20370;-65
2022/05/11 12:56:38;;;;;;;11.05;2.40;;;;;;;;;;5052060;28;19968;-65
2022/05/11 12:59:18;;;;;;;12.00;2.55;;;;;;;;;;5052179;28;20079;-65
2022/05/11 13:01:44;;;;;;;11.00;1.90;;;;;;;;;;5033793;28;20045;-65
2022/05/11 13:04:24;;;;;;;9.73;2.00;;;;;;;;;;5033692;28;20068;-62
2022/05/11 13:06:53;;;;;;;21.63;3.08;;;;;;;;;;5051952;28;20412;-62
2022/05/11 13:09:29;;;;;;;10.63;2.35;;;;;;;;;;5034334;28;20128;-62
2022/05/11 13:11:55;;;;;;;14.57;2.50;;;;;;;;;;5034109;28;20045;-65
2022/05/11 13:14:21;;;;;;;;;;;;;;;;;;5052661;28;20804;-63
2022/05/11 13:16:48;;;;;;;20.92;3.03;;;;;;;;;;5052219;28;19960;-63
2022/05/11 13:19:25;;;;;;;13.85;2.75;;;;;;;;;;5051964;28;20041;-64
2022/05/11 13:21:52;;;;;;;13.50;2.47;;;;;;;;;;5052552;28;20048;-66
2022/05/11 13:24:36;;;;;;;18.02;3.10;;;;;;;;;;5002536;28;20068;-66
2022/05/11 13:27:22;;;;;;;11.80;2.63;;;;;;;;;;5055824;28;20073;-63
2022/05/11 13:29:48;;;;;;;15.10;3.00;;;;;;;;;;5055420;28;20116;-63
2022/05/11 13:32:24;;;;;;;10.88;2.70;;;;;;;;;;5055817;28;20036;-64
2022/05/11 13:34:50;;;;;;;16.27;2.92;;;;;;;;;;5055634;28;20130;-65
2022/05/11 13:37:24;;;;;;;16.58;2.80;;;;;;;;;;5055440;28;20041;-63
2022/05/11 13:39:51;;;;;;;15.48;3.35;;;;;;;;;;5055856;28;20052;-68
2022/05/11 13:42:17;;;;;;;;;;;;;;;;;;5021527;28;20041;-62
2022/05/11 13:44:48;;;;;;;15.32;3.33;;;;;;;;;;5055115;28;20295;-68
2022/05/11 13:50:35;;;;;;;19.40;3.83;;;;;;;;;;5055035;28;20135;-65
2022/05/11 13:53:17;;;;;;;16.58;4.10;;;;;;;;;;5037104;28;20045;-62
2022/05/11 13:55:44;;;;;;;24.95;4.03;;;;;;;;;;5055823;28;20049;-64
2022/05/11 13:58:29;;;;;;;17.70;4.00;;;;;;;;;;5055707;28;20044;-62
2022/05/11 14:00:56;;;;;;;20.67;4.38;;;;;;;;;;5055154;28;20041;-62
2022/05/11 14:03:27;;;;;;;15.10;3.80;;;;;;;;;;5055266;28;20045;-62
2022/05/11 14:05:54;;;;;;;20.08;4.45;;;;;;;;;;5054845;28;20104;-62
2022/05/11 14:08:20;;;;;;;22.00;5.40;;;;;;;;;;5055286;28;20162;-62
2022/05/11 14:10:46;;;;;;;32.42;10.63;;;;;;;;;;5055037;28;20048;-63
2022/05/11 14:13:12;;;;;;;23.02;4.85;;;;;;;;;;5055585;28;20074;-64
2022/05/11 14:15:38;;;;;;;15.63;4.57;;;;;;;;;;5055122;28;20175;-66
2022/05/11 14:18:04;;;;;;;;;;;;;;;;;;5037381;28;20492;-66
2022/05/11 14:20:30;;;;;;;24.15;4.95;;;;;;;;;;5054279;28;19928;-77
2022/05/11 14:22:57;;;;;;;29.20;5.65;;;;;;;;;;5054218;28;20045;-82
2022/05/11 14:25:24;;;;;;;21.02;5.20;;;;;;;;;;5054885;28;20040;-76
2022/05/11 14:27:50;;;;;;;;;;;;;;;;;;5037223;28;20045;-83
2022/05/11 14:30:16;;;;;;;20.08;4.63;;;;;;;;;;5054809;28;19916;-84
2022/05/11 14:32:42;;;;;;;;;;;;;;;;;;5055513;28;20047;-74
2022/05/11 14:35:10;;;;;;;15.88;3.78;;;;;;;;;;5059192;28;20011;-74
2022/05/11 14:37:36;;;;;;;15.68;3.70;;;;;;;;;;5059379;28;20392;-76
2022/05/11 14:40:04;;;;;;;18.65;3.58;;;;;;;;;;5043874;28;20081;-76
2022/05/11 14:42:30;;;;;;;21.48;2.75;;;;;;;;;;5063692;28;20025;-83
2022/05/11 14:44:57;;;;;;;13.38;3.05;;;;;;;;;;5058534;28;20036;-78
2022/05/11 14:47:23;;;;;;;13.85;2.47;;;;;;;;;;5055078;28;20037;-73
2022/05/11 14:49:49;;;;;;;;;;;;;;;;;;5037114;28;20045;-76
2022/05/11 14:52:15;;;;;;;12.48;2.30;;;;;;;;;;5054900;28;19917;-80
2022/05/11 14:54:41;;;;;;;;;;;;;;;;;;5055139;28;20116;-75
2022/05/11 15:02:38;;;;;;;12.38;2.88;;;;;;;;;;5054488;28;20045;-80
2022/05/11 15:05:05;;;;;;;10.65;2.15;;;;;;;;;;5036128;28;20049;-81
2022/05/11 15:07:32;;;;;;;13.18;2.55;;;;;;;;;;5035947;28;20057;-66
2022/05/11 15:09:58;;;;;;;12.63;2.67;;;;;;;;;;5053926;28;20045;-64
2022/05/11 15:15:09;;;;;;;12.60;2.67;;;;;;;;;;5053876;28;19967;-65
2022/05/11 15:17:36;;;;;;;10.18;2.42;;;;;;;;;;5053786;28;20051;-64
2022/05/11 15:20:03;;;;;;;15.20;2.63;;;;;;;;;;5053762;28;20048;-64
2022/05/11 15:22:30;;;;;;;11.95;2.60;;;;;;;;;;5053620;28;20037;-64
2022/05/11 15:24:56;;;;;;;8.80;2.35;;;;;;;;;;5053896;28;20124;-64
2022/05/11 15:27:22;;;;;;;10.63;2.33;;;;;;;;;;5053537;28;20044;-67
2022/05/11 15:29:49;;;;;;;10.23;2.33;;;;;;;;;;5053781;28;20120;-66
2022/05/11 15:32:20;;;;;;;15.25;2.60;;;;;;;;;;5035771;28;20132;-65
2022/05/11 15:34:46;;;;;;;12.30;2.38;;;;;;;;;;5053437;28;20115;-68
2022/05/11 15:37:12;;;;;;;;;;;;;;;;;;5053928;28;20154;-65
2022/05/11 15:39:39;;;;;;;8.57;2.15;;;;;;;;;;5052127;28;20008;-63
2022/05/11 15:42:05;;;;;;;11.75;2.38;;;;;;;;;;5053318;28;20532;-63
2022/05/11 15:44:31;;;;;;;11.85;2.38;;;;;;;;;;5035471;28;20083;-65
2022/05/11 15:46:57;;;;;;;;;;;;;;;;;;5053546;28;20120;-63